Time;durP1;ratioP1;P1;durP2;ratioP2;P2;SDS_P1;SDS_P2;PMS_P1;PMS_P2;Temp;Humidity;BMP_temperature;BMP_pressure;BME280_temperature;BME280_humidity;BME280_pressure;Samples;Min_cycle;Max_cycle;Signal;HPM_P1;HPM_P2
2022/04/13 00:01:26;;;;;;;10.50;2.63;;;16.80;65.50;;;;;;5091623;28;20476;-68
2022/04/13 00:03:52;;;;;;;13.10;3.07;;;16.70;65.40;;;;;;5091765;28;20452;-68
2022/04/13 00:06:19;;;;;;;9.10;3.13;;;16.70;65.50;;;;;;5091928;28;20453;-68
2022/04/13 00:08:46;;;;;;;8.30;3.00;;;16.70;65.60;;;;;;5091530;28;20527;-69
2022/04/13 00:11:13;;;;;;;8.60;2.83;;;16.60;65.90;;;;;;5091053;28;20461;-68
2022/04/13 00:13:40;;;;;;;8.30;3.83;;;16.50;66.20;;;;;;5090524;28;20469;-69
2022/04/13 00:16:07;;;;;;;7.00;2.90;;;16.50;66.60;;;;;;5090761;28;20452;-68
2022/04/13 00:18:36;;;;;;;6.60;2.93;;;16.50;67.10;;;;;;5091379;28;20463;-68
2022/04/13 00:21:02;;;;;;;9.10;2.63;;;16.50;67.30;;;;;;5090654;28;20568;-69
2022/04/13 00:23:29;;;;;;;13.77;3.87;;;16.40;67.60;;;;;;5090344;28;20436;-68
2022/04/13 00:25:56;;;;;;;5.37;2.43;;;16.40;68.00;;;;;;5090597;28;20441;-68
2022/04/13 00:28:22;;;;;;;6.43;2.77;;;16.40;68.70;;;;;;5090681;28;20444;-68
2022/04/13 00:30:49;;;;;;;6.30;3.30;;;16.30;68.70;;;;;;5090729;28;20492;-69
2022/04/13 00:33:16;;;;;;;6.67;2.83;;;16.30;68.90;;;;;;5090385;28;20489;-68
2022/04/13 00:35:44;;;;;;;7.23;2.50;;;16.30;69.20;;;;;;5090790;28;20449;-68
2022/04/13 00:38:11;;;;;;;10.20;3.10;;;16.30;69.60;;;;;;5090437;28;20448;-69
2022/04/13 00:40:40;;;;;;;6.47;2.93;;;16.30;69.90;;;;;;5091191;28;20939;-69
2022/04/13 00:43:07;;;;;;;10.03;2.90;;;16.20;70.10;;;;;;5090225;28;20441;-69
2022/04/13 00:45:34;;;;;;;7.97;2.90;;;16.20;70.40;;;;;;5090195;28;20449;-69
2022/04/13 00:48:02;;;;;;;9.00;3.33;;;16.20;70.90;;;;;;5088462;28;20453;-68
2022/04/13 00:50:29;;;;;;;11.27;3.27;;;16.10;71.20;;;;;;5089626;28;20507;-68
2022/04/13 00:52:59;;;;;;;6.30;3.00;;;16.10;71.50;;;;;;5089717;28;20444;-69
2022/04/13 00:55:27;;;;;;;7.70;3.40;;;16.10;72.00;;;;;;5088735;28;20469;-68
2022/04/13 00:57:57;;;;;;;10.60;3.33;;;16.10;72.30;;;;;;5080503;28;20449;-68
2022/04/13 01:00:25;;;;;;;8.33;2.53;;;16.10;72.60;;;;;;5089880;28;20439;-69
2022/04/13 01:02:53;;;;;;;7.20;3.30;;;16.00;72.90;;;;;;5091603;28;20537;-67
2022/04/13 01:05:21;;;;;;;13.90;2.80;;;16.00;73.20;;;;;;5090239;28;20445;-68
2022/04/13 01:07:49;;;;;;;13.03;3.50;;;16.00;73.70;;;;;;5090071;28;20502;-68
2022/04/13 01:10:18;;;;;;;5.93;2.73;;;16.00;73.90;;;;;;5090016;28;20449;-69
2022/04/13 01:12:45;;;;;;;12.50;3.13;;;16.00;74.20;;;;;;5090226;28;20461;-69
2022/04/13 01:15:12;;;;;;;4.23;2.40;;;15.90;74.40;;;;;;5089860;28;20495;-69
2022/04/13 01:17:40;;;;;;;6.70;2.20;;;15.80;74.80;;;;;;5089896;28;20449;-69
2022/04/13 01:20:10;;;;;;;6.80;2.40;;;15.90;75.40;;;;;;5089404;28;20456;-69
2022/04/13 01:22:40;;;;;;;8.60;2.93;;;15.90;75.70;;;;;;5089963;28;20468;-68
2022/04/13 01:25:08;;;;;;;9.33;2.90;;;15.90;75.80;;;;;;5089488;28;20947;-68
2022/04/13 01:27:35;;;;;;;8.80;3.10;;;15.80;76.00;;;;;;5088710;28;20445;-68
2022/04/13 01:30:01;;;;;;;6.40;2.10;;;15.90;76.30;;;;;;5090100;28;20464;-69
2022/04/13 01:32:29;;;;;;;5.30;2.47;;;15.90;76.30;;;;;;5089210;28;20460;-69
2022/04/13 01:34:56;;;;;;;4.27;2.10;;;15.90;76.10;;;;;;5088839;28;20489;-68
2022/04/13 01:37:23;;;;;;;8.70;2.33;;;15.80;76.00;;;;;;5089288;28;20445;-68
2022/04/13 01:39:52;;;;;;;10.87;2.73;;;15.80;76.30;;;;;;5089997;28;20459;-69
2022/04/13 01:42:18;;;;;;;14.57;3.10;;;15.80;76.70;;;;;;5089544;28;20468;-70
2022/04/13 01:44:46;;;;;;;12.13;2.73;;;15.80;77.00;;;;;;5090175;28;20437;-69
2022/04/13 01:47:12;;;;;;;8.17;3.27;;;15.80;77.00;;;;;;5089181;28;20452;-68
2022/04/13 01:49:39;;;;;;;7.63;2.90;;;15.80;77.00;;;;;;5088500;28;20940;-68
2022/04/13 01:52:08;;;;;;;8.40;3.00;;;15.70;77.00;;;;;;5088526;28;20477;-69
2022/04/13 01:54:35;;;;;;;8.40;2.80;;;15.70;77.10;;;;;;5089371;28;20477;-69
2022/04/13 01:57:04;;;;;;;8.60;2.40;;;15.70;77.20;;;;;;5090249;28;20449;-69
2022/04/13 01:59:31;;;;;;;10.13;3.40;;;15.70;77.20;;;;;;5089569;28;20436;-69
2022/04/13 02:01:58;;;;;;;10.20;2.43;;;15.60;77.30;;;;;;5092109;28;20495;-68
2022/04/13 02:04:27;;;;;;;8.13;2.90;;;15.60;77.60;;;;;;5091339;28;20923;-69
2022/04/13 02:06:54;;;;;;;20.70;3.30;;;15.60;78.00;;;;;;5089154;28;20440;-69
2022/04/13 02:09:21;;;;;;;12.90;3.37;;;15.60;78.20;;;;;;5088646;28;20456;-69
2022/04/13 02:11:49;;;;;;;10.40;3.23;;;15.50;78.10;;;;;;5088922;28;20479;-68
2022/04/13 02:14:17;;;;;;;10.53;3.60;;;15.50;78.00;;;;;;5090043;28;20488;-68
2022/04/13 02:16:44;;;;;;;9.60;3.07;;;15.50;78.10;;;;;;5090178;28;20449;-68
2022/04/13 02:19:12;;;;;;;16.70;3.53;;;15.40;78.10;;;;;;5088998;28;20488;-68
2022/04/13 02:21:40;;;;;;;8.87;3.70;;;15.40;78.20;;;;;;5088400;28;20472;-69
2022/04/13 02:24:07;;;;;;;13.00;3.50;;;15.30;78.20;;;;;;5088618;28;20450;-68
2022/04/13 02:26:34;;;;;;;10.20;3.03;;;15.30;78.30;;;;;;5088973;28;20452;-69
2022/04/13 02:29:01;;;;;;;9.67;3.27;;;15.20;78.10;;;;;;5089724;28;20455;-70
2022/04/13 02:31:29;;;;;;;12.00;3.80;;;15.20;78.00;;;;;;5089185;28;20473;-68
2022/04/13 02:33:56;;;;;;;11.03;3.30;;;15.10;78.00;;;;;;5089288;28;20563;-68
2022/04/13 02:36:23;;;;;;;11.20;3.87;;;15.10;77.60;;;;;;5088828;28;20487;-68
2022/04/13 02:38:50;;;;;;;9.07;3.40;;;15.10;77.70;;;;;;5091731;28;20445;-68
2022/04/13 02:41:16;;;;;;;13.33;4.00;;;15.10;78.30;;;;;;5094682;28;20545;-69
2022/04/13 02:43:43;;;;;;;5.73;2.63;;;15.00;78.70;;;;;;5092033;28;20452;-69
2022/04/13 02:46:10;;;;;;;7.90;3.20;;;15.00;79.00;;;;;;5092689;28;20440;-69
2022/04/13 02:48:38;;;;;;;11.07;3.40;;;15.00;79.40;;;;;;5092317;28;20807;-68
2022/04/13 02:51:05;;;;;;;8.20;3.07;;;15.00;79.60;;;;;;5091154;28;20479;-68
2022/04/13 02:53:31;;;;;;;9.70;3.10;;;15.00;80.70;;;;;;5091419;28;20457;-69
2022/04/13 02:55:59;;;;;;;9.20;2.90;;;15.00;80.10;;;;;;5091954;28;20512;-69
2022/04/13 02:58:25;;;;;;;6.40;2.90;;;15.00;80.40;;;;;;5091293;28;20453;-68
2022/04/13 03:00:54;;;;;;;5.27;2.87;;;15.00;80.40;;;;;;5092647;28;20469;-69
2022/04/13 03:03:21;;;;;;;10.20;3.33;;;15.00;80.60;;;;;;5092223;28;20441;-68
2022/04/13 03:05:49;;;;;;;8.27;2.90;;;15.00;80.70;;;;;;5092630;28;20444;-68
2022/04/13 03:08:16;;;;;;;9.87;2.90;;;15.00;80.80;;;;;;5092297;28;20441;-69
2022/04/13 03:10:44;;;;;;;9.00;3.13;;;14.90;81.00;;;;;;5091535;28;20444;-69
2022/04/13 03:13:11;;;;;;;5.93;2.93;;;15.00;81.30;;;;;;5091798;28;20483;-69
2022/04/13 03:15:38;;;;;;;9.20;3.70;;;15.00;82.10;;;;;;5092107;28;20644;-69
2022/04/13 03:18:05;;;;;;;8.43;3.40;;;15.10;82.30;;;;;;5092157;28;20459;-69
2022/04/13 03:20:32;;;;;;;8.10;3.30;;;15.10;82.60;;;;;;5092376;28;20457;-68
2022/04/13 03:23:01;;;;;;;10.47;3.80;;;15.10;82.70;;;;;;5092524;28;20448;-69
2022/04/13 03:25:27;;;;;;;9.63;2.80;;;15.10;82.90;;;;;;5092225;28;20446;-69
2022/04/13 03:27:54;;;;;;;11.53;3.30;;;15.20;83.10;;;;;;5096871;28;20441;-69
2022/04/13 03:30:22;;;;;;;7.10;2.63;;;15.20;83.20;;;;;;5100135;28;20461;-68
2022/04/13 03:32:51;;;;;;;7.10;3.23;;;15.20;82.90;;;;;;5097354;28;20559;-68
2022/04/13 03:35:18;;;;;;;9.80;3.60;;;15.30;82.40;;;;;;5094156;28;20497;-68
2022/04/13 03:37:45;;;;;;;6.60;2.80;;;15.30;82.70;;;;;;5093572;28;20460;-68
2022/04/13 03:40:13;;;;;;;5.70;3.63;;;15.30;82.90;;;;;;5091234;28;20448;-68
2022/04/13 03:42:41;;;;;;;9.50;3.13;;;15.30;83.20;;;;;;5092423;28;20472;-69
2022/04/13 03:45:11;;;;;;;14.87;3.17;;;15.40;83.40;;;;;;5091904;28;20444;-69
2022/04/13 03:47:39;;;;;;;10.30;3.20;;;15.40;83.30;;;;;;5091648;28;20445;-68
2022/04/13 03:50:06;;;;;;;10.10;2.63;;;15.40;82.20;;;;;;5090615;28;20464;-68
2022/04/13 03:52:33;;;;;;;9.57;3.03;;;15.40;82.40;;;;;;5091632;28;20468;-69
2022/04/13 03:55:00;;;;;;;8.63;3.03;;;15.40;83.00;;;;;;5091008;28;20480;-69
2022/04/13 03:57:29;;;;;;;5.83;2.67;;;15.40;82.40;;;;;;5091555;28;20444;-69
2022/04/13 03:59:55;;;;;;;12.83;3.43;;;15.40;82.70;;;;;;5091354;28;20440;-69
2022/04/13 04:02:22;;;;;;;6.60;3.40;;;15.50;83.60;;;;;;5091425;28;20473;-69
2022/04/13 04:04:50;;;;;;;7.27;3.30;;;15.50;83.90;;;;;;5091715;28;20444;-68
2022/04/13 04:07:17;;;;;;;4.97;2.70;;;15.50;84.20;;;;;;5090939;28;20455;-69
2022/04/13 04:09:44;;;;;;;10.10;3.67;;;15.50;84.20;;;;;;5090236;28;20444;-68
2022/04/13 04:12:11;;;;;;;14.87;4.40;;;15.50;84.00;;;;;;5087945;28;20998;-68
2022/04/13 04:14:39;;;;;;;9.43;2.80;;;15.50;84.00;;;;;;5091352;28;20488;-68
2022/04/13 04:17:06;;;;;;;8.80;3.73;;;15.50;84.10;;;;;;5092451;28;20441;-68
2022/04/13 04:19:34;;;;;;;8.27;3.43;;;15.60;83.70;;;;;;5091038;28;20459;-68
2022/04/13 04:22:00;;;;;;;8.23;3.63;;;15.60;83.60;;;;;;5091186;28;20548;-68
2022/04/13 04:24:27;;;;;;;6.07;3.50;;;15.60;83.90;;;;;;5091043;28;20448;-68
2022/04/13 04:26:54;;;;;;;12.83;4.67;;;15.60;84.20;;;;;;5090665;28;20436;-68
2022/04/13 04:29:22;;;;;;;8.20;3.77;;;15.60;84.50;;;;;;5090184;28;20440;-68
2022/04/13 04:31:54;;;;;;;9.93;3.40;;;15.50;85.00;;;;;;5090190;28;20488;-69
2022/04/13 04:34:23;;;;;;;11.10;4.50;;;15.50;85.00;;;;;;5088583;28;20445;-68
2022/04/13 04:36:50;;;;;;;9.97;3.37;;;15.50;85.10;;;;;;5089764;28;20463;-68
2022/04/13 04:39:17;;;;;;;6.03;3.17;;;15.50;85.50;;;;;;5090015;28;20441;-68
2022/04/13 04:41:44;;;;;;;9.03;4.03;;;15.50;85.80;;;;;;5089364;28;20467;-69
2022/04/13 04:44:12;;;;;;;6.90;3.33;;;15.40;86.10;;;;;;5090481;28;20538;-68
2022/04/13 04:46:39;;;;;;;7.57;4.00;;;15.40;86.40;;;;;;5091220;28;20448;-68
2022/04/13 04:49:07;;;;;;;6.43;3.47;;;15.40;86.50;;;;;;5092283;28;20445;-68
2022/04/13 04:51:34;;;;;;;9.33;3.60;;;15.40;86.60;;;;;;5091667;28;20472;-69
2022/04/13 04:54:02;;;;;;;6.97;4.30;;;15.30;86.50;;;;;;5092002;28;20444;-69
2022/04/13 04:56:29;;;;;;;11.47;3.80;;;15.30;87.10;;;;;;5091852;28;20497;-68
2022/04/13 04:58:56;;;;;;;6.03;2.60;;;15.30;87.30;;;;;;5091308;28;20445;-68
2022/04/13 05:01:23;;;;;;;11.13;4.50;;;15.20;87.20;;;;;;5091698;28;20472;-69
2022/04/13 05:03:50;;;;;;;7.50;3.83;;;15.20;87.30;;;;;;5091914;28;20448;-69
2022/04/13 05:06:21;;;;;;;7.50;3.67;;;15.20;87.80;;;;;;5091112;28;20445;-69
2022/04/13 05:08:48;;;;;;;11.13;3.43;;;15.20;88.40;;;;;;5090253;28;20449;-69
2022/04/13 05:11:15;;;;;;;10.77;4.17;;;15.10;88.40;;;;;;5090464;28;20476;-68
2022/04/13 05:13:42;;;;;;;9.97;4.00;;;15.20;88.40;;;;;;5090289;28;20460;-68
2022/04/13 05:16:08;;;;;;;10.93;3.60;;;15.10;88.60;;;;;;5089573;28;20476;-68
2022/04/13 05:18:35;;;;;;;11.70;3.60;;;15.10;88.70;;;;;;5088713;28;20449;-68
2022/04/13 05:21:02;;;;;;;6.87;3.97;;;15.10;88.40;;;;;;5088661;28;20472;-68
2022/04/13 05:23:30;;;;;;;8.90;3.53;;;15.10;89.20;;;;;;5090111;28;20451;-69
2022/04/13 05:25:57;;;;;;;14.73;4.20;;;15.10;88.70;;;;;;5091079;28;20445;-68
2022/04/13 05:28:24;;;;;;;8.17;3.73;;;15.10;88.90;;;;;;5089756;28;20455;-68
2022/04/13 05:30:50;;;;;;;6.43;3.83;;;15.10;89.00;;;;;;5090469;28;20846;-68
2022/04/13 05:33:17;;;;;;;8.93;3.23;;;15.10;89.40;;;;;;5090396;28;20451;-68
2022/04/13 05:35:45;;;;;;;9.03;3.63;;;15.10;89.80;;;;;;5090386;28;20506;-68
2022/04/13 05:38:11;;;;;;;5.63;3.30;;;15.10;89.60;;;;;;5090622;28;20444;-68
2022/04/13 05:40:39;;;;;;;6.90;3.50;;;15.10;89.70;;;;;;5090246;28;20444;-69
2022/04/13 05:43:06;;;;;;;8.27;3.83;;;15.10;89.90;;;;;;5090323;28;20448;-69
2022/04/13 05:45:33;;;;;;;10.10;3.63;;;15.10;90.00;;;;;;5090396;28;20444;-69
2022/04/13 05:48:00;;;;;;;9.37;4.00;;;15.10;90.00;;;;;;5089899;28;20444;-69
2022/04/13 05:50:27;;;;;;;10.97;4.63;;;15.20;90.10;;;;;;5090744;28;20436;-69
2022/04/13 05:52:54;;;;;;;17.93;4.33;;;15.20;90.10;;;;;;5090555;28;20448;-69
2022/04/13 05:55:20;;;;;;;9.90;4.50;;;15.20;90.10;;;;;;5090089;28;20492;-68
2022/04/13 05:57:48;;;;;;;14.73;3.80;;;15.30;90.00;;;;;;5090297;28;20420;-68
2022/04/13 06:00:16;;;;;;;11.13;4.07;;;15.30;89.80;;;;;;5090303;28;20453;-68
2022/04/13 06:02:43;;;;;;;10.27;4.57;;;15.40;90.10;;;;;;5090356;28;20465;-69
2022/04/13 06:05:10;;;;;;;8.47;4.47;;;15.40;90.10;;;;;;5090407;28;20436;-68
2022/04/13 06:07:37;;;;;;;6.63;4.50;;;15.50;90.30;;;;;;5090463;28;20448;-68
2022/04/13 06:10:05;;;;;;;8.80;4.30;;;15.50;90.40;;;;;;5090742;28;20448;-69
2022/04/13 06:12:33;;;;;;;9.83;4.53;;;15.50;90.40;;;;;;5089723;28;20472;-69
2022/04/13 06:15:07;;;;;;;17.17;5.37;;;15.50;90.40;;;;;;5090074;28;20477;-68
2022/04/13 06:17:34;;;;;;;7.30;4.10;;;15.60;90.50;;;;;;5090232;28;20448;-68
2022/04/13 06:20:01;;;;;;;7.83;4.20;;;15.60;90.40;;;;;;5090046;28;21018;-69
2022/04/13 06:22:27;;;;;;;6.20;4.33;;;15.60;90.60;;;;;;5089647;28;20469;-69
2022/04/13 06:24:54;;;;;;;12.90;5.40;;;15.70;90.80;;;;;;5090293;28;20471;-69
2022/04/13 06:27:21;;;;;;;8.33;6.00;;;15.70;90.90;;;;;;5089743;28;20429;-68
2022/04/13 06:29:48;;;;;;;12.20;6.50;;;15.70;90.40;;;;;;5090412;28;20460;-69
2022/04/13 06:32:16;;;;;;;16.40;6.40;;;15.60;90.30;;;;;;5090064;28;20469;-69
2022/04/13 06:34:43;;;;;;;10.13;6.20;;;15.70;90.30;;;;;;5089463;28;20440;-69
2022/04/13 06:37:10;;;;;;;11.23;6.57;;;15.70;90.20;;;;;;5090044;28;20468;-69
2022/04/13 06:39:37;;;;;;;9.80;6.80;;;15.70;90.10;;;;;;5088185;28;20457;-69
2022/04/13 06:42:04;;;;;;;13.27;6.10;;;15.80;90.20;;;;;;5088884;28;20469;-69
2022/04/13 06:44:31;;;;;;;13.23;5.80;;;15.80;90.10;;;;;;5088988;28;20444;-69
2022/04/13 06:46:59;;;;;;;14.87;7.00;;;15.80;90.00;;;;;;5088862;28;20448;-69
2022/04/13 06:49:27;;;;;;;9.63;6.50;;;15.90;89.80;;;;;;5089093;28;20421;-68
2022/04/13 06:51:54;;;;;;;12.00;6.50;;;15.90;90.00;;;;;;5089829;28;20487;-71
2022/04/13 06:54:21;;;;;;;10.60;7.20;;;16.00;90.00;;;;;;5090201;28;20453;-69
2022/04/13 06:56:47;;;;;;;9.53;6.93;;;16.10;90.20;;;;;;5089681;28;20485;-69
2022/04/13 06:59:14;;;;;;;10.87;6.57;;;16.10;90.20;;;;;;5089072;28;20441;-69
2022/04/13 07:01:41;;;;;;;11.70;7.23;;;16.20;90.20;;;;;;5089820;28;20494;-69
2022/04/13 07:04:08;;;;;;;12.07;7.40;;;16.30;90.00;;;;;;5089382;28;20444;-68
2022/04/13 07:06:36;;;;;;;14.60;7.70;;;16.30;90.20;;;;;;5089411;28;20451;-68
2022/04/13 07:09:02;;;;;;;12.83;6.77;;;16.40;90.20;;;;;;5089228;28;20441;-69
2022/04/13 07:11:29;;;;;;;12.90;6.93;;;16.40;90.20;;;;;;5089196;28;20464;-69
2022/04/13 07:13:56;;;;;;;17.53;7.27;;;16.40;90.30;;;;;;5089299;28;20452;-68
2022/04/13 07:16:23;;;;;;;11.10;7.23;;;16.50;90.70;;;;;;5089318;28;20487;-69
2022/04/13 07:18:50;;;;;;;15.73;7.83;;;16.50;91.00;;;;;;5089481;28;20464;-69
2022/04/13 07:21:17;;;;;;;11.50;8.10;;;16.60;91.00;;;;;;5089648;28;20490;-69
2022/04/13 07:23:45;;;;;;;17.83;8.67;;;16.60;91.10;;;;;;5090588;28;20936;-69
2022/04/13 07:26:12;;;;;;;12.03;7.73;;;16.70;91.10;;;;;;5093523;28;20451;-68
2022/04/13 07:28:39;;;;;;;10.97;6.83;;;16.80;90.90;;;;;;5093543;28;20445;-68
2022/04/13 07:31:06;;;;;;;13.37;7.57;;;16.90;91.00;;;;;;5092160;28;20460;-69
2022/04/13 07:33:33;;;;;;;10.80;7.60;;;17.00;90.60;;;;;;5092709;28;20444;-68
2022/04/13 07:36:00;;;;;;;23.70;8.40;;;17.00;90.20;;;;;;5093711;28;20480;-69
2022/04/13 07:38:26;;;;;;;13.57;6.97;;;17.10;90.80;;;;;;5093122;28;20451;-69
2022/04/13 07:40:58;;;;;;;12.87;7.00;;;17.10;90.20;;;;;;5092860;28;20468;-69
2022/04/13 07:43:25;;;;;;;12.13;7.83;;;17.10;90.30;;;;;;5092907;28;20437;-69
2022/04/13 07:45:51;;;;;;;10.90;6.97;;;17.20;90.20;;;;;;5097269;28;20443;-70
2022/04/13 07:48:18;;;;;;;11.70;6.60;;;17.30;90.20;;;;;;5101318;28;20409;-70
2022/04/13 07:50:47;;;;;;;11.27;6.70;;;17.40;90.20;;;;;;5100243;28;20458;-69
2022/04/13 07:53:14;;;;;;;12.13;7.10;;;17.50;90.20;;;;;;5093126;28;20444;-69
2022/04/13 07:55:41;;;;;;;12.20;7.53;;;17.60;89.00;;;;;;5092600;28;20488;-69
2022/04/13 07:58:09;;;;;;;13.20;7.77;;;17.70;90.00;;;;;;5093207;28;20436;-69
2022/04/13 08:00:36;;;;;;;12.20;7.13;;;17.80;88.80;;;;;;5092826;28;20441;-69
2022/04/13 08:03:02;;;;;;;9.30;6.50;;;17.90;87.90;;;;;;5093107;28;20441;-69
2022/04/13 08:05:29;;;;;;;14.63;6.23;;;18.00;87.40;;;;;;5092418;28;20473;-68
2022/04/13 08:07:56;;;;;;;12.50;7.10;;;18.10;86.80;;;;;;5091914;28;20441;-68
2022/04/13 08:10:23;;;;;;;11.97;6.83;;;18.20;86.50;;;;;;5093070;28;20498;-69
2022/04/13 08:12:50;;;;;;;11.90;7.07;;;18.30;86.70;;;;;;5091919;28;20465;-69
2022/04/13 08:15:18;;;;;;;11.90;6.13;;;18.40;86.40;;;;;;5091951;28;20440;-69
2022/04/13 08:17:45;;;;;;;9.37;7.70;;;18.50;84.50;;;;;;5092714;28;20463;-69
2022/04/13 08:20:14;;;;;;;12.60;7.37;;;18.70;84.70;;;;;;5091806;28;20472;-68
2022/04/13 08:22:41;;;;;;;11.03;6.90;;;18.90;84.20;;;;;;5091836;28;20464;-69
2022/04/13 08:25:09;;;;;;;11.20;7.10;;;19.10;84.50;;;;;;5091175;28;20467;-69
2022/04/13 08:27:36;;;;;;;9.23;6.00;;;19.40;82.30;;;;;;5093262;28;20445;-68
2022/04/13 08:30:04;;;;;;;12.90;5.63;;;19.50;82.30;;;;;;5092182;28;20808;-69
2022/04/13 08:32:33;;;;;;;8.20;5.10;;;19.70;79.90;;;;;;5090842;28;20468;-69
2022/04/13 08:35:04;;;;;;;13.90;6.60;;;20.10;79.20;;;;;;5090870;28;20453;-69
2022/04/13 08:37:32;;;;;;;11.80;5.50;;;20.40;76.80;;;;;;5092129;28;20647;-69
2022/04/13 08:39:59;;;;;;;9.10;5.87;;;20.70;75.60;;;;;;5095093;28;20516;-70
2022/04/13 08:42:35;;;;;;;8.50;5.33;;;21.10;74.70;;;;;;5090925;28;20503;-70
2022/04/13 08:45:09;;;;;;;11.57;5.90;;;21.50;73.20;;;;;;5089979;28;20435;-69
2022/04/13 08:47:42;;;;;;;11.47;5.73;;;22.00;71.20;;;;;;5091441;28;20432;-69
2022/04/13 08:50:12;;;;;;;7.77;5.17;;;22.40;68.70;;;;;;5091171;28;20434;-69
2022/04/13 08:52:40;;;;;;;16.17;5.97;;;22.60;67.10;;;;;;5091112;28;20465;-69
2022/04/13 08:55:09;;;;;;;11.10;4.30;;;22.80;66.70;;;;;;5091238;28;20532;-69
2022/04/13 08:57:38;;;;;;;8.90;5.00;;;23.10;65.70;;;;;;5090261;28;20497;-69
2022/04/13 09:00:09;;;;;;;7.43;4.50;;;23.30;65.20;;;;;;5091431;28;20440;-69
2022/04/13 09:02:51;;;;;;;7.23;4.70;;;23.50;62.10;;;;;;5091260;28;20464;-69
2022/04/13 09:05:20;;;;;;;6.83;4.07;;;23.60;59.80;;;;;;5091184;28;20440;-69
2022/04/13 09:07:54;;;;;;;8.70;4.93;;;23.50;58.50;;;;;;5090905;28;20441;-69
2022/04/13 09:10:24;;;;;;;11.47;5.20;;;23.40;58.30;;;;;;5090734;28;20439;-69
2022/04/13 09:12:52;;;;;;;8.17;4.37;;;23.20;58.90;;;;;;5090893;28;20456;-69
2022/04/13 09:15:20;;;;;;;10.00;5.00;;;23.00;59.20;;;;;;5089840;28;20446;-69
2022/04/13 09:17:49;;;;;;;10.07;4.80;;;22.90;59.80;;;;;;5089479;28;20476;-69
2022/04/13 09:20:16;;;;;;;7.13;4.70;;;22.90;60.80;;;;;;5090358;28;20460;-69
2022/04/13 09:22:44;;;;;;;12.77;4.87;;;22.80;59.60;;;;;;5091175;28;20471;-69
2022/04/13 09:25:11;;;;;;;7.33;4.50;;;22.90;60.70;;;;;;5091354;28;20453;-69
2022/04/13 09:27:39;;;;;;;7.10;4.77;;;23.00;61.80;;;;;;5091353;28;21016;-69
2022/04/13 09:30:09;;;;;;;6.40;4.50;;;23.10;60.00;;;;;;5090212;28;20437;-68
2022/04/13 09:32:37;;;;;;;6.20;3.90;;;23.10;59.80;;;;;;5090658;28;20818;-68
2022/04/13 09:35:07;;;;;;;8.87;4.40;;;23.30;59.70;;;;;;5089909;28;20516;-69
2022/04/13 09:37:35;;;;;;;7.43;4.53;;;23.40;59.20;;;;;;5090082;28;20477;-69
2022/04/13 09:40:01;;;;;;;9.93;4.77;;;23.50;58.50;;;;;;5089869;28;20432;-69
2022/04/13 09:42:28;;;;;;;6.17;4.70;;;23.60;58.20;;;;;;5089887;28;20489;-69
2022/04/13 09:44:56;;;;;;;7.10;4.63;;;23.70;57.50;;;;;;5089071;28;20452;-68
2022/04/13 09:47:24;;;;;;;12.27;4.67;;;23.80;57.10;;;;;;5089313;28;20471;-68
2022/04/13 09:49:53;;;;;;;10.50;5.37;;;23.90;57.30;;;;;;5089673;28;20440;-68
2022/04/13 09:52:26;;;;;;;7.53;4.53;;;24.00;56.30;;;;;;5090205;28;20475;-69
2022/04/13 09:54:53;;;;;;;8.50;3.93;;;24.00;55.90;;;;;;5089945;28;20429;-69
2022/04/13 09:57:24;;;;;;;9.17;4.07;;;24.30;56.70;;;;;;5090283;28;20583;-69
2022/04/13 09:59:57;;;;;;;8.80;4.17;;;24.60;56.00;;;;;;5089718;28;20440;-68
2022/04/13 10:02:35;;;;;;;10.13;4.00;;;25.10;55.90;;;;;;5088732;28;20473;-69
2022/04/13 10:05:03;;;;;;;10.37;4.00;;;25.70;54.80;;;;;;5089887;28;20459;-69
2022/04/13 10:07:31;;;;;;;7.30;3.70;;;26.30;52.80;;;;;;5089063;28;20448;-69
2022/04/13 10:09:58;;;;;;;8.03;3.90;;;26.80;51.20;;;;;;5088693;28;20472;-69
2022/04/13 10:12:25;;;;;;;6.60;5.13;;;27.30;50.10;;;;;;5088891;28;20473;-69
2022/04/13 10:14:52;;;;;;;6.70;4.70;;;27.50;47.00;;;;;;5088676;28;20448;-69
2022/04/13 10:17:20;;;;;;;8.93;4.67;;;27.60;46.80;;;;;;5089004;28;20498;-68
2022/04/13 10:19:54;;;;;;;7.93;5.20;;;27.80;46.80;;;;;;5088067;28;20974;-68
2022/04/13 10:22:21;;;;;;;9.80;4.40;;;28.00;46.40;;;;;;5088325;28;20476;-69
2022/04/13 10:24:49;;;;;;;11.87;4.83;;;28.10;45.50;;;;;;5088482;28;20928;-69
2022/04/13 10:27:17;;;;;;;9.87;4.33;;;28.00;45.10;;;;;;5088260;28;20440;-68
2022/04/13 10:29:45;;;;;;;8.23;4.03;;;28.00;46.00;;;;;;5089018;28;20456;-68
2022/04/13 10:32:14;;;;;;;6.03;4.67;;;28.20;46.50;;;;;;5088705;28;20471;-68
2022/04/13 10:34:43;;;;;;;6.10;4.23;;;28.60;45.30;;;;;;5088735;28;20441;-69
2022/04/13 10:37:12;;;;;;;9.47;4.83;;;29.00;44.80;;;;;;5087849;28;20480;-69
2022/04/13 10:39:41;;;;;;;7.13;4.50;;;29.20;43.20;;;;;;5087878;28;20817;-68
2022/04/13 10:42:11;;;;;;;9.97;4.20;;;29.50;42.10;;;;;;5087034;28;20536;-69
2022/04/13 10:44:42;;;;;;;9.67;5.37;;;29.90;41.90;;;;;;5087714;28;20429;-69
2022/04/13 10:47:11;;;;;;;7.87;5.30;;;30.00;39.70;;;;;;5088087;28;20797;-69
2022/04/13 10:49:50;;;;;;;12.73;5.30;;;29.70;40.00;;;;;;5088444;28;20436;-69
2022/04/13 10:52:24;;;;;;;7.80;4.30;;;29.40;40.10;;;;;;5089456;28;20467;-69
2022/04/13 10:54:55;;;;;;;6.67;4.50;;;29.30;40.50;;;;;;5089452;28;20432;-69
2022/04/13 10:57:30;;;;;;;7.20;3.73;;;29.40;40.70;;;;;;5088077;28;20547;-68
2022/04/13 11:00:02;;;;;;;6.80;4.07;;;29.60;40.00;;;;;;5090942;28;20425;-68
2022/04/13 11:02:33;;;;;;;9.20;4.90;;;29.90;40.10;;;;;;5091586;28;20524;-68
2022/04/13 11:05:01;;;;;;;6.90;4.93;;;30.30;37.80;;;;;;5092493;28;20432;-68
2022/04/13 11:07:28;;;;;;;9.23;4.23;;;30.40;37.40;;;;;;5091774;28;20455;-69
2022/04/13 11:09:57;;;;;;;11.07;4.50;;;30.70;37.50;;;;;;5091150;28;20444;-68
2022/04/13 11:12:26;;;;;;;6.83;4.60;;;30.80;38.00;;;;;;5091543;28;20468;-69
2022/04/13 11:14:55;;;;;;;7.40;4.17;;;30.50;36.80;;;;;;5091790;28;20433;-68
2022/04/13 11:17:28;;;;;;;7.93;4.50;;;30.40;37.90;;;;;;5091423;28;20579;-68
2022/04/13 11:20:18;;;;;;;7.63;3.80;;;30.20;38.20;;;;;;5091212;28;20555;-69
2022/04/13 11:22:45;;;;;;;5.40;3.70;;;30.00;38.50;;;;;;5091786;28;20508;-69
2022/04/13 11:25:32;;;;;;;5.63;3.60;;;29.70;39.50;;;;;;5091175;28;20448;-69
2022/04/13 11:28:00;;;;;;;8.90;4.33;;;29.60;39.10;;;;;;5092183;28;20445;-69
2022/04/13 11:30:28;;;;;;;10.47;4.57;;;29.20;39.40;;;;;;5091821;28;20480;-68
2022/04/13 11:32:55;;;;;;;5.53;3.50;;;28.80;40.00;;;;;;5091890;28;20437;-69
2022/04/13 11:35:26;;;;;;;7.13;3.70;;;28.50;40.70;;;;;;5091286;28;20432;-69
2022/04/13 11:38:06;;;;;;;5.97;3.50;;;28.50;40.90;;;;;;5090476;28;20484;-69
2022/04/13 11:40:33;;;;;;;6.93;3.67;;;28.50;40.90;;;;;;5091171;28;20455;-69
2022/04/13 11:43:03;;;;;;;8.33;4.40;;;28.50;41.60;;;;;;5091438;28;20455;-68
2022/04/13 11:45:31;;;;;;;6.50;3.80;;;28.30;41.80;;;;;;5091700;28;20478;-68
2022/04/13 11:48:04;;;;;;;5.37;3.43;;;28.30;42.70;;;;;;5091378;28;20853;-68
2022/04/13 11:50:33;;;;;;;6.40;3.80;;;28.80;41.50;;;;;;5090856;28;20486;-68
2022/04/13 11:53:03;;;;;;;8.07;4.17;;;29.40;40.60;;;;;;5089917;28;21035;-67
2022/04/13 11:55:35;;;;;;;8.60;4.13;;;29.70;37.90;;;;;;5091076;28;20828;-68
2022/04/13 11:58:22;;;;;;;7.17;3.60;;;29.80;38.30;;;;;;5090666;28;20498;-67
2022/04/13 12:01:00;;;;;;;5.40;3.00;;;30.20;38.60;;;;;;5089357;28;20971;-68
2022/04/13 12:03:30;;;;;;;8.73;3.70;;;30.70;38.60;;;;;;5089310;28;20434;-68
2022/04/13 12:05:58;;;;;;;9.03;3.80;;;31.00;36.80;;;;;;5090484;28;20437;-68
2022/04/13 12:08:26;;;;;;;8.07;3.90;;;31.20;35.40;;;;;;5090518;28;20436;-68
2022/04/13 12:10:57;;;;;;;8.90;4.27;;;31.60;35.10;;;;;;5091618;28;20489;-68
2022/04/13 12:13:27;;;;;;;6.43;4.40;;;31.50;34.00;;;;;;5095718;28;20424;-68
2022/04/13 12:15:56;;;;;;;7.17;4.07;;;31.40;34.00;;;;;;5096998;28;20487;-68
2022/04/13 12:18:24;;;;;;;5.13;4.43;;;31.20;34.60;;;;;;5090530;28;20483;-69
2022/04/13 12:20:53;;;;;;;6.27;3.90;;;31.00;35.40;;;;;;5090301;28;20464;-68
2022/04/13 12:23:25;;;;;;;8.50;4.27;;;30.80;35.60;;;;;;5089133;28;20450;-68
2022/04/13 12:25:54;;;;;;;6.33;4.37;;;30.60;36.10;;;;;;5091190;28;20532;-68
2022/04/13 12:28:22;;;;;;;8.00;4.60;;;30.00;36.50;;;;;;5091163;28;20457;-68
2022/04/13 12:31:00;;;;;;;9.10;5.13;;;29.60;38.20;;;;;;5091397;28;20476;-69
2022/04/13 12:33:29;;;;;;;7.60;5.20;;;29.20;39.30;;;;;;5090708;28;20429;-68
2022/04/13 12:35:58;;;;;;;13.67;4.43;;;28.90;40.90;;;;;;5091607;28;20445;-68
2022/04/13 12:38:28;;;;;;;8.43;3.80;;;28.50;42.00;;;;;;5091276;28;20472;-69
2022/04/13 12:41:03;;;;;;;6.40;3.57;;;28.20;42.10;;;;;;5091684;28;20487;-68
2022/04/13 12:43:31;;;;;;;7.83;3.80;;;27.80;42.10;;;;;;5091366;28;20443;-67
2022/04/13 12:45:59;;;;;;;7.60;4.10;;;27.50;43.20;;;;;;5091378;28;20453;-68
2022/04/13 12:48:27;;;;;;;9.50;4.30;;;27.30;44.20;;;;;;5090771;28;20776;-68